Aviation Digital Data Service (ADDS)

Output produced by METARs form (0638 UTC 27 July 2016)
found at http://aviationweather.gov/adds/metars/
 
KPOU 270533Z 2706/2806 00000KT P6SM SKC 
     FM270900 00000KT 5SM BR SKC 
     FM271200 VRB03KT P6SM SKC 
     FM271600 26005KT P6SM FEW060 
     FM272300 00000KT P6SM SKC